Time;durP1;ratioP1;P1;durP2;ratioP2;P2;SDS_P1;SDS_P2;PMS_P1;PMS_P2;Temp;Humidity;BMP_temperature;BMP_pressure;BME280_temperature;BME280_humidity;BME280_pressure;Samples;Min_cycle;Max_cycle;Signal;HPM_P1;HPM_P2
2022/05/26 16:04:18;;;;;;;6.00;1.33;;;25.20;91.70;;;;;;6311275;22;20206;-93
2022/05/26 16:06:44;;;;;;;5.63;1.23;;;25.70;91.30;;;;;;6308503;22;20178;-92
2022/05/26 16:09:11;;;;;;;4.07;0.90;;;25.10;91.20;;;;;;6280166;22;20159;-93
2022/05/26 16:11:38;;;;;;;9.53;1.50;;;24.10;92.20;;;;;;6279638;22;20165;-90
2022/05/26 16:14:04;;;;;;;3.97;1.20;;;23.40;93.00;;;;;;6278622;22;20201;-92
2022/05/26 16:16:30;;;;;;;2.53;1.10;;;23.50;93.20;;;;;;6276596;22;20665;-94
2022/05/26 16:18:56;;;;;;;4.50;1.50;;;23.60;93.00;;;;;;6278181;22;20154;-93
2022/05/26 16:21:23;;;;;;;4.07;1.20;;;23.80;93.00;;;;;;6276340;22;20263;-92
2022/05/26 18:57:12;;;;;;;2.73;1.20;;;18.10;99.90;;;;;;6328926;22;20837;-83
2022/05/26 18:59:38;;;;;;;5.33;1.37;;;18.10;99.90;;;;;;6339531;22;20157;-84
2022/05/26 19:02:04;;;;;;;2.47;1.00;;;18.00;99.90;;;;;;6312143;22;20164;-84
2022/05/26 19:04:29;;;;;;;1.50;1.10;;;17.90;99.90;;;;;;6311577;22;20168;-84
2022/05/26 19:06:55;;;;;;;5.10;1.60;;;18.10;99.90;;;;;;6330253;22;20170;-84
2022/05/26 19:09:20;;;;;;;2.70;1.10;;;18.10;99.90;;;;;;6281034;22;20204;-84
2022/05/26 19:11:48;;;;;;;1.53;1.03;;;18.20;99.90;;;;;;6281109;22;20157;-84
2022/05/26 19:14:17;;;;;;;1.80;1.10;;;18.20;99.90;;;;;;6280931;22;20170;-84
2022/05/26 19:16:43;;;;;;;2.90;1.00;;;18.30;99.90;;;;;;6281339;22;20201;-84
2022/05/26 19:19:12;;;;;;;3.63;1.10;;;18.40;99.90;;;;;;6280885;22;20547;-84
2022/05/26 19:21:38;;;;;;;5.90;1.10;;;18.70;99.90;;;;;;6280658;22;20598;-83
2022/05/26 19:24:12;;;;;;;2.00;0.97;;;18.90;99.90;;;;;;6280857;22;20173;-85
2022/05/26 19:26:39;;;;;;;4.37;1.20;;;18.90;99.90;;;;;;6280794;22;20684;-84
2022/05/26 19:29:05;;;;;;;4.47;1.00;;;18.90;99.90;;;;;;6280688;22;20165;-83
2022/05/26 19:31:33;;;;;;;4.13;1.50;;;18.70;99.90;;;;;;6308233;22;20664;-84
2022/05/26 19:34:01;;;;;;;4.73;0.73;;;18.60;99.90;;;;;;6281058;22;20211;-84
2022/05/26 19:36:27;;;;;;;2.97;1.00;;;18.30;99.90;;;;;;6280482;22;20224;-84
2022/05/26 19:38:53;;;;;;;5.17;1.20;;;17.90;99.90;;;;;;6280834;22;20536;-84
2022/05/26 19:41:21;;;;;;;1.83;0.80;;;18.00;99.90;;;;;;6280881;22;20164;-84
2022/05/26 19:43:49;;;;;;;2.20;0.80;;;18.00;99.90;;;;;;6280514;22;20158;-84
2022/05/26 19:46:17;;;;;;;5.43;1.00;;;17.90;99.90;;;;;;6280795;22;20170;-84
2022/05/26 19:48:43;;;;;;;4.97;1.10;;;17.70;99.90;;;;;;6280483;22;20162;-83
2022/05/26 19:51:10;;;;;;;7.27;1.30;;;17.80;99.90;;;;;;6280177;22;20161;-84
2022/05/26 19:53:36;;;;;;;3.87;1.60;;;17.80;99.90;;;;;;6280563;22;20287;-84
2022/05/26 19:56:03;;;;;;;2.37;1.20;;;17.80;99.90;;;;;;6280527;22;20227;-84
2022/05/26 19:58:29;;;;;;;2.53;1.10;;;17.80;99.90;;;;;;6280683;22;20173;-84
2022/05/26 20:00:57;;;;;;;2.50;1.03;;;17.70;99.90;;;;;;6280163;22;20645;-83
2022/05/26 20:03:23;;;;;;;5.77;1.40;;;17.60;99.90;;;;;;6280773;22;20157;-84
2022/05/26 20:05:50;;;;;;;2.23;1.07;;;17.70;99.90;;;;;;6280407;22;20161;-85
2022/05/26 20:08:19;;;;;;;2.17;0.97;;;17.80;99.90;;;;;;6280198;22;20186;-83
2022/05/26 20:10:45;;;;;;;3.27;0.93;;;17.90;99.90;;;;;;6281049;22;20172;-84
2022/05/26 20:13:12;;;;;;;2.90;1.10;;;17.90;99.90;;;;;;6280637;22;20158;-83
2022/05/26 20:15:42;;;;;;;3.67;1.30;;;17.80;99.90;;;;;;6280297;22;20547;-85
2022/05/26 20:18:11;;;;;;;1.90;1.13;;;17.90;99.90;;;;;;6280197;22;20193;-84
2022/05/26 20:20:38;;;;;;;3.43;1.30;;;18.10;99.90;;;;;;6280060;22;20185;-84
2022/05/26 20:23:04;;;;;;;5.70;1.10;;;18.00;99.90;;;;;;6280534;22;20256;-84
2022/05/26 20:25:31;;;;;;;3.33;1.20;;;18.00;99.90;;;;;;6279758;22;20189;-83
2022/05/26 20:30:41;;;;;;;3.40;1.23;;;17.80;99.90;;;;;;6307607;22;20184;-84
2022/05/26 20:33:06;;;;;;;2.27;1.17;;;17.80;99.90;;;;;;6280364;22;20171;-84
2022/05/26 20:35:33;;;;;;;5.17;1.40;;;17.70;99.90;;;;;;6279936;22;20267;-84
2022/05/26 20:37:59;;;;;;;3.00;1.20;;;17.60;99.90;;;;;;6280257;22;20189;-84
2022/05/26 20:40:25;;;;;;;3.77;1.30;;;17.60;99.90;;;;;;6307454;22;20164;-84
2022/05/26 20:42:51;;;;;;;5.33;1.27;;;17.40;99.90;;;;;;6280537;22;20162;-84
2022/05/26 20:45:16;;;;;;;4.53;1.03;;;17.30;99.90;;;;;;6307382;22;20153;-83
2022/05/26 20:47:44;;;;;;;5.33;1.57;;;17.30;99.90;;;;;;6280145;22;20227;-84
2022/05/26 20:50:15;;;;;;;2.83;1.10;;;17.40;99.90;;;;;;6279581;22;20157;-84
2022/05/26 20:52:41;;;;;;;1.63;1.07;;;17.50;99.90;;;;;;6280234;22;20173;-85
2022/05/26 20:55:07;;;;;;;7.43;1.43;;;17.60;99.90;;;;;;6280076;22;20493;-84
2022/05/26 20:57:33;;;;;;;2.60;1.23;;;17.80;99.90;;;;;;6279913;22;20229;-84
2022/05/26 20:59:59;;;;;;;4.27;1.13;;;17.80;99.90;;;;;;6280104;22;20245;-85
2022/05/26 21:02:25;;;;;;;3.03;1.27;;;17.60;99.90;;;;;;6279939;22;20162;-84
2022/05/26 21:04:55;;;;;;;7.10;1.83;;;17.50;99.90;;;;;;6280034;22;20219;-83
2022/05/26 21:07:25;;;;;;;4.03;1.57;;;17.30;99.90;;;;;;6279747;22;20181;-83
2022/05/26 21:09:51;;;;;;;4.93;1.30;;;17.20;99.90;;;;;;6307531;22;20332;-83
2022/05/26 21:12:16;;;;;;;2.70;1.40;;;17.20;99.90;;;;;;6279804;22;20280;-84
2022/05/26 21:14:42;;;;;;;4.37;1.53;;;17.20;99.90;;;;;;6280254;22;20582;-85
2022/05/26 21:17:09;;;;;;;3.17;1.33;;;17.30;99.90;;;;;;6279950;22;20268;-84
2022/05/26 21:19:35;;;;;;;3.57;1.77;;;17.20;99.90;;;;;;6279384;22;20586;-84
2022/05/26 21:22:01;;;;;;;5.50;1.80;;;17.20;99.90;;;;;;6280087;22;20165;-84
2022/05/26 21:24:27;;;;;;;3.20;1.77;;;17.10;99.90;;;;;;6280062;22;20543;-84
2022/05/26 21:26:53;;;;;;;3.37;1.57;;;17.10;99.90;;;;;;6279733;22;20173;-84
2022/05/26 21:29:24;;;;;;;3.40;1.47;;;17.00;99.90;;;;;;6280109;22;20204;-85
2022/05/26 21:31:52;;;;;;;4.07;1.67;;;17.10;99.90;;;;;;6279363;22;20170;-84
2022/05/26 21:34:17;;;;;;;4.47;1.57;;;17.00;99.90;;;;;;6279753;22;20242;-84
2022/05/26 21:36:43;;;;;;;6.03;2.50;;;16.90;99.90;;;;;;6279729;22;20193;-84
2022/05/26 21:39:09;;;;;;;5.90;2.23;;;16.80;99.90;;;;;;6279682;22;20200;-84
2022/05/26 21:41:34;;;;;;;4.90;1.83;;;16.80;99.90;;;;;;6279611;22;20161;-84
2022/05/26 21:44:02;;;;;;;6.27;1.53;;;16.80;99.90;;;;;;6279898;22;20549;-83
2022/05/26 21:46:28;;;;;;;6.17;1.77;;;16.70;99.90;;;;;;6279286;22;20190;-83
2022/05/26 21:48:54;;;;;;;3.73;1.80;;;16.70;99.90;;;;;;6280400;22;20196;-84
2022/05/26 21:51:33;;;;;;;7.33;2.40;;;16.70;99.90;;;;;;6279922;22;20241;-84
2022/05/26 21:54:01;;;;;;;7.57;2.00;;;16.60;99.90;;;;;;6279888;22;20164;-84
2022/05/26 21:56:26;;;;;;;6.33;1.50;;;16.50;99.90;;;;;;6279335;22;20217;-84
2022/05/26 21:58:52;;;;;;;4.67;2.00;;;16.50;99.90;;;;;;6279733;22;20167;-85
2022/05/26 22:01:21;;;;;;;5.23;1.80;;;16.60;99.90;;;;;;6279632;22;20167;-84
2022/05/26 22:03:51;;;;;;;6.80;1.50;;;16.60;99.90;;;;;;6279445;22;20168;-84
2022/05/26 22:11:47;;;;;;;5.53;1.70;;;16.60;99.90;;;;;;6306729;22;20252;-83
2022/05/26 22:14:13;;;;;;;5.67;1.70;;;16.60;99.90;;;;;;6279690;22;20184;-84
2022/05/26 22:16:45;;;;;;;4.43;1.60;;;16.60;99.90;;;;;;6279131;22;20499;-83
2022/05/26 22:19:13;;;;;;;3.57;1.40;;;16.80;99.90;;;;;;6279717;22;20160;-84
2022/05/26 22:21:44;;;;;;;6.80;1.40;;;16.90;99.90;;;;;;6279715;22;20153;-84
2022/05/26 22:24:16;;;;;;;4.90;1.90;;;16.90;99.90;;;;;;6280508;22;20550;-83
2022/05/26 22:26:42;;;;;;;6.63;1.60;;;16.80;99.90;;;;;;6281653;22;20248;-84
2022/05/26 22:29:08;;;;;;;5.00;1.33;;;16.80;99.90;;;;;;6281377;22;20558;-84
2022/05/26 22:31:35;;;;;;;5.47;1.77;;;16.80;99.90;;;;;;6281554;22;20174;-83
2022/05/26 22:34:04;;;;;;;7.03;1.57;;;16.60;99.90;;;;;;6281188;22;20189;-83
2022/05/26 22:36:30;;;;;;;5.27;1.60;;;16.60;99.90;;;;;;6281210;22;20592;-83
2022/05/26 22:38:56;;;;;;;5.87;1.57;;;16.60;99.90;;;;;;6281457;22;20171;-83
2022/05/26 22:41:27;;;;;;;3.30;1.60;;;16.50;99.90;;;;;;6281715;22;20251;-83
2022/05/26 22:43:56;;;;;;;5.67;1.50;;;16.60;99.90;;;;;;6281635;22;20188;-83
2022/05/26 22:46:30;;;;;;;4.17;1.37;;;16.70;99.90;;;;;;6281041;22;20224;-83
2022/05/26 22:48:56;;;;;;;5.53;1.50;;;16.70;99.90;;;;;;6281464;22;20157;-83
2022/05/26 22:51:21;;;;;;;6.00;1.40;;;16.70;99.90;;;;;;6308716;22;20212;-83
2022/05/26 22:53:48;;;;;;;4.90;1.37;;;16.60;99.90;;;;;;6281224;22;20160;-83
2022/05/26 22:56:13;;;;;;;6.03;1.47;;;16.60;99.90;;;;;;6281291;22;20186;-84
2022/05/26 22:58:42;;;;;;;6.77;1.43;;;16.60;99.90;;;;;;6308234;22;20168;-83
2022/05/26 23:01:08;;;;;;;6.73;1.63;;;16.60;99.90;;;;;;6281327;22;20255;-83
2022/05/26 23:03:34;;;;;;;6.10;1.90;;;16.50;99.90;;;;;;6308350;22;20154;-84
2022/05/26 23:06:00;;;;;;;4.33;1.40;;;16.60;99.90;;;;;;6308639;22;20221;-83
2022/05/26 23:08:27;;;;;;;4.70;1.40;;;16.70;99.90;;;;;;6280738;22;20289;-83
2022/05/26 23:10:53;;;;;;;6.50;1.67;;;16.70;99.90;;;;;;6280347;22;20171;-84
2022/05/26 23:13:24;;;;;;;5.30;1.77;;;16.70;99.90;;;;;;6307721;22;20160;-83
2022/05/26 23:15:49;;;;;;;6.00;1.30;;;16.70;99.90;;;;;;6308099;22;20156;-83
2022/05/26 23:18:15;;;;;;;6.20;1.90;;;16.60;99.90;;;;;;6280770;22;20183;-83
2022/05/26 23:20:41;;;;;;;5.67;1.40;;;16.70;99.90;;;;;;6281395;22;20150;-84
2022/05/26 23:23:06;;;;;;;7.20;1.57;;;16.70;99.90;;;;;;6280921;22;20656;-83
2022/05/26 23:25:32;;;;;;;7.53;2.07;;;16.80;99.90;;;;;;6280199;22;20173;-84
2022/05/26 23:28:03;;;;;;;9.43;1.70;;;16.70;99.90;;;;;;6280194;22;20169;-84
2022/05/26 23:30:29;;;;;;;5.27;1.50;;;16.70;99.90;;;;;;6307648;22;20146;-83
2022/05/26 23:32:55;;;;;;;3.70;1.50;;;16.70;99.90;;;;;;6280088;22;20245;-83
2022/05/26 23:35:21;;;;;;;4.73;1.20;;;16.80;99.90;;;;;;6280784;22;20660;-83
2022/05/26 23:37:49;;;;;;;5.53;1.77;;;16.90;99.90;;;;;;6308082;22;20182;-83
2022/05/26 23:40:14;;;;;;;3.60;1.50;;;17.00;99.90;;;;;;6280660;22;20214;-83
2022/05/26 23:45:25;;;;;;;4.00;1.13;;;16.90;99.90;;;;;;6308094;22;20516;-83
2022/05/26 23:47:50;;;;;;;3.90;1.37;;;16.80;99.90;;;;;;6308261;22;20199;-83
2022/05/26 23:50:20;;;;;;;4.50;1.37;;;16.70;99.90;;;;;;6280536;22;20174;-83
2022/05/26 23:52:46;;;;;;;3.50;1.13;;;16.60;99.90;;;;;;6280402;22;20236;-84
2022/05/26 23:55:11;;;;;;;6.40;1.67;;;16.70;99.90;;;;;;6280475;22;20200;-83
2022/05/26 23:57:49;;;;;;;3.50;1.50;;;16.70;99.90;;;;;;6307593;22;20186;-84
